sensor_id;sensor_type;location;lat;lon;timestamp;P1;durP1;ratioP1;P2;durP2;ratioP2
34573;SDS011;20809;49.594;8.734;2023-02-23T00:01:41;30.90;;;21.02;;
34573;SDS011;20809;49.594;8.734;2023-02-23T00:04:42;33.03;;;19.50;;
34573;SDS011;20809;49.594;8.734;2023-02-23T00:07:43;31.42;;;20.65;;
34573;SDS011;20809;49.594;8.734;2023-02-23T00:10:44;32.67;;;20.20;;
34573;SDS011;20809;49.594;8.734;2023-02-23T00:13:46;30.25;;;19.48;;
34573;SDS011;20809;49.594;8.734;2023-02-23T00:16:49;32.97;;;21.45;;
34573;SDS011;20809;49.594;8.734;2023-02-23T00:19:50;36.55;;;22.05;;
34573;SDS011;20809;49.594;8.734;2023-02-23T00:22:54;34.42;;;21.80;;
34573;SDS011;20809;49.594;8.734;2023-02-23T00:25:56;42.28;;;22.50;;
34573;SDS011;20809;49.594;8.734;2023-02-23T00:28:58;37.67;;;22.85;;
34573;SDS011;20809;49.594;8.734;2023-02-23T00:32:00;39.78;;;22.40;;
34573;SDS011;20809;49.594;8.734;2023-02-23T00:35:01;39.58;;;23.73;;
34573;SDS011;20809;49.594;8.734;2023-02-23T00:38:01;36.97;;;22.73;;
34573;SDS011;20809;49.594;8.734;2023-02-23T00:41:03;31.50;;;21.17;;
34573;SDS011;20809;49.594;8.734;2023-02-23T00:44:05;33.08;;;20.38;;
34573;SDS011;20809;49.594;8.734;2023-02-23T00:47:06;34.78;;;21.33;;
34573;SDS011;20809;49.594;8.734;2023-02-23T00:50:11;54.70;;;29.38;;
34573;SDS011;20809;49.594;8.734;2023-02-23T00:53:14;51.72;;;27.70;;
34573;SDS011;20809;49.594;8.734;2023-02-23T00:56:15;47.90;;;26.52;;
34573;SDS011;20809;49.594;8.734;2023-02-23T00:59:16;39.78;;;23.35;;
34573;SDS011;20809;49.594;8.734;2023-02-23T01:02:17;43.17;;;25.98;;
34573;SDS011;20809;49.594;8.734;2023-02-23T01:05:18;43.30;;;24.75;;
34573;SDS011;20809;49.594;8.734;2023-02-23T01:08:21;43.33;;;24.67;;
34573;SDS011;20809;49.594;8.734;2023-02-23T01:11:26;45.65;;;25.73;;
34573;SDS011;20809;49.594;8.734;2023-02-23T01:14:27;38.58;;;22.77;;
34573;SDS011;20809;49.594;8.734;2023-02-23T01:17:30;48.58;;;24.42;;
34573;SDS011;20809;49.594;8.734;2023-02-23T01:20:30;43.70;;;25.92;;
34573;SDS011;20809;49.594;8.734;2023-02-23T01:23:35;45.50;;;25.15;;
34573;SDS011;20809;49.594;8.734;2023-02-23T01:26:37;42.03;;;25.98;;
34573;SDS011;20809;49.594;8.734;2023-02-23T01:29:40;45.10;;;26.25;;
34573;SDS011;20809;49.594;8.734;2023-02-23T01:32:41;44.28;;;25.35;;
34573;SDS011;20809;49.594;8.734;2023-02-23T01:35:42;45.60;;;25.92;;
34573;SDS011;20809;49.594;8.734;2023-02-23T01:38:43;48.50;;;26.77;;
34573;SDS011;20809;49.594;8.734;2023-02-23T01:41:44;42.58;;;25.92;;
34573;SDS011;20809;49.594;8.734;2023-02-23T01:47:47;39.53;;;24.50;;
34573;SDS011;20809;49.594;8.734;2023-02-23T01:51:01;38.00;;;24.80;;
34573;SDS011;20809;49.594;8.734;2023-02-23T01:54:17;45.63;;;27.35;;
34573;SDS011;20809;49.594;8.734;2023-02-23T01:59:13;46.42;;;27.10;;
34573;SDS011;20809;49.594;8.734;2023-02-23T02:02:19;49.97;;;28.33;;
34573;SDS011;20809;49.594;8.734;2023-02-23T02:05:23;49.80;;;30.02;;
34573;SDS011;20809;49.594;8.734;2023-02-23T02:08:28;45.03;;;26.60;;
34573;SDS011;20809;49.594;8.734;2023-02-23T02:11:31;48.72;;;28.45;;
34573;SDS011;20809;49.594;8.734;2023-02-23T02:14:38;42.78;;;27.75;;
34573;SDS011;20809;49.594;8.734;2023-02-23T02:18:26;47.22;;;28.30;;
34573;SDS011;20809;49.594;8.734;2023-02-23T02:39:42;42.22;;;25.83;;
34573;SDS011;20809;49.594;8.734;2023-02-23T02:43:00;41.38;;;25.58;;
34573;SDS011;20809;49.594;8.734;2023-02-23T02:50:13;40.45;;;26.52;;
34573;SDS011;20809;49.594;8.734;2023-02-23T02:56:46;36.42;;;24.52;;
34573;SDS011;20809;49.594;8.734;2023-02-23T02:59:49;45.67;;;25.95;;
34573;SDS011;20809;49.594;8.734;2023-02-23T03:03:26;39.30;;;23.83;;
34573;SDS011;20809;49.594;8.734;2023-02-23T03:06:46;39.88;;;24.65;;
34573;SDS011;20809;49.594;8.734;2023-02-23T03:10:30;44.92;;;26.20;;
34573;SDS011;20809;49.594;8.734;2023-02-23T03:20:58;45.35;;;27.23;;
34573;SDS011;20809;49.594;8.734;2023-02-23T03:32:11;37.75;;;24.35;;
34573;SDS011;20809;49.594;8.734;2023-02-23T03:35:45;40.47;;;24.55;;
34573;SDS011;20809;49.594;8.734;2023-02-23T03:39:21;41.88;;;24.98;;
34573;SDS011;20809;49.594;8.734;2023-02-23T03:42:48;37.05;;;23.17;;
34573;SDS011;20809;49.594;8.734;2023-02-23T03:46:11;43.25;;;25.45;;
34573;SDS011;20809;49.594;8.734;2023-02-23T03:49:36;38.75;;;25.63;;
34573;SDS011;20809;49.594;8.734;2023-02-23T03:52:58;44.00;;;24.85;;
34573;SDS011;20809;49.594;8.734;2023-02-23T03:56:21;38.25;;;25.50;;
34573;SDS011;20809;49.594;8.734;2023-02-23T03:59:50;40.38;;;25.02;;
34573;SDS011;20809;49.594;8.734;2023-02-23T04:03:15;37.53;;;25.55;;
34573;SDS011;20809;49.594;8.734;2023-02-23T04:06:37;40.30;;;25.40;;
34573;SDS011;20809;49.594;8.734;2023-02-23T04:10:01;35.00;;;24.90;;
34573;SDS011;20809;49.594;8.734;2023-02-23T04:13:23;47.63;;;27.73;;
34573;SDS011;20809;49.594;8.734;2023-02-23T04:16:28;44.00;;;26.88;;
34573;SDS011;20809;49.594;8.734;2023-02-23T04:19:32;51.58;;;31.25;;
34573;SDS011;20809;49.594;8.734;2023-02-23T04:22:33;51.72;;;30.65;;
34573;SDS011;20809;49.594;8.734;2023-02-23T04:25:35;50.92;;;30.25;;
34573;SDS011;20809;49.594;8.734;2023-02-23T04:28:38;51.97;;;31.85;;
34573;SDS011;20809;49.594;8.734;2023-02-23T04:31:39;55.30;;;32.22;;
34573;SDS011;20809;49.594;8.734;2023-02-23T04:34:44;60.47;;;32.65;;
34573;SDS011;20809;49.594;8.734;2023-02-23T04:37:46;52.88;;;31.08;;
34573;SDS011;20809;49.594;8.734;2023-02-23T04:40:48;55.83;;;31.42;;
34573;SDS011;20809;49.594;8.734;2023-02-23T04:43:50;43.08;;;27.25;;
34573;SDS011;20809;49.594;8.734;2023-02-23T04:46:51;52.42;;;31.85;;
34573;SDS011;20809;49.594;8.734;2023-02-23T04:49:52;47.92;;;29.42;;
34573;SDS011;20809;49.594;8.734;2023-02-23T04:52:53;47.67;;;28.65;;
34573;SDS011;20809;49.594;8.734;2023-02-23T04:55:54;47.30;;;27.45;;
34573;SDS011;20809;49.594;8.734;2023-02-23T04:58:56;57.05;;;30.05;;
34573;SDS011;20809;49.594;8.734;2023-02-23T05:01:58;55.33;;;30.58;;
34573;SDS011;20809;49.594;8.734;2023-02-23T05:05:00;42.90;;;28.27;;
34573;SDS011;20809;49.594;8.734;2023-02-23T05:08:01;47.00;;;28.27;;
34573;SDS011;20809;49.594;8.734;2023-02-23T05:11:04;52.40;;;29.38;;
34573;SDS011;20809;49.594;8.734;2023-02-23T05:14:06;49.42;;;28.80;;
34573;SDS011;20809;49.594;8.734;2023-02-23T05:17:08;43.60;;;27.52;;
34573;SDS011;20809;49.594;8.734;2023-02-23T05:20:10;46.70;;;27.83;;
34573;SDS011;20809;49.594;8.734;2023-02-23T05:23:12;44.08;;;28.13;;
34573;SDS011;20809;49.594;8.734;2023-02-23T05:26:14;47.38;;;28.73;;
34573;SDS011;20809;49.594;8.734;2023-02-23T05:29:17;42.80;;;26.67;;
34573;SDS011;20809;49.594;8.734;2023-02-23T05:32:20;42.22;;;26.27;;
34573;SDS011;20809;49.594;8.734;2023-02-23T05:35:21;43.17;;;27.17;;
34573;SDS011;20809;49.594;8.734;2023-02-23T05:38:26;61.08;;;31.10;;
34573;SDS011;20809;49.594;8.734;2023-02-23T05:41:28;42.80;;;25.67;;
34573;SDS011;20809;49.594;8.734;2023-02-23T05:44:31;48.78;;;27.70;;
34573;SDS011;20809;49.594;8.734;2023-02-23T05:50:38;49.25;;;28.55;;
34573;SDS011;20809;49.594;8.734;2023-02-23T05:53:40;46.40;;;26.73;;
34573;SDS011;20809;49.594;8.734;2023-02-23T05:56:43;41.15;;;25.20;;
34573;SDS011;20809;49.594;8.734;2023-02-23T05:59:44;50.70;;;29.85;;
34573;SDS011;20809;49.594;8.734;2023-02-23T06:02:48;45.65;;;28.27;;
34573;SDS011;20809;49.594;8.734;2023-02-23T06:05:54;45.25;;;27.55;;
34573;SDS011;20809;49.594;8.734;2023-02-23T06:08:58;44.88;;;25.63;;
34573;SDS011;20809;49.594;8.734;2023-02-23T06:12:03;52.13;;;28.33;;
34573;SDS011;20809;49.594;8.734;2023-02-23T06:15:06;51.42;;;27.45;;
34573;SDS011;20809;49.594;8.734;2023-02-23T06:18:09;51.08;;;26.77;;
34573;SDS011;20809;49.594;8.734;2023-02-23T06:21:15;51.40;;;27.42;;
34573;SDS011;20809;49.594;8.734;2023-02-23T06:24:22;43.55;;;25.13;;
34573;SDS011;20809;49.594;8.734;2023-02-23T06:27:27;43.33;;;25.20;;
34573;SDS011;20809;49.594;8.734;2023-02-23T06:30:29;40.05;;;25.40;;
34573;SDS011;20809;49.594;8.734;2023-02-23T06:33:32;43.80;;;26.20;;
34573;SDS011;20809;49.594;8.734;2023-02-23T06:36:36;44.85;;;25.20;;
34573;SDS011;20809;49.594;8.734;2023-02-23T06:39:38;43.72;;;25.48;;
34573;SDS011;20809;49.594;8.734;2023-02-23T06:42:42;40.58;;;23.63;;
34573;SDS011;20809;49.594;8.734;2023-02-23T06:45:50;45.75;;;25.55;;
34573;SDS011;20809;49.594;8.734;2023-02-23T06:48:54;45.40;;;26.23;;
34573;SDS011;20809;49.594;8.734;2023-02-23T06:51:59;45.58;;;24.70;;
34573;SDS011;20809;49.594;8.734;2023-02-23T06:55:02;48.22;;;25.58;;
34573;SDS011;20809;49.594;8.734;2023-02-23T06:58:09;44.05;;;24.58;;
34573;SDS011;20809;49.594;8.734;2023-02-23T07:01:13;44.70;;;24.98;;
34573;SDS011;20809;49.594;8.734;2023-02-23T07:04:16;36.78;;;22.67;;
34573;SDS011;20809;49.594;8.734;2023-02-23T07:07:18;41.80;;;24.48;;
34573;SDS011;20809;49.594;8.734;2023-02-23T07:10:20;43.10;;;24.88;;
34573;SDS011;20809;49.594;8.734;2023-02-23T07:13:23;39.97;;;23.33;;
34573;SDS011;20809;49.594;8.734;2023-02-23T07:16:28;40.33;;;23.23;;
34573;SDS011;20809;49.594;8.734;2023-02-23T07:19:30;36.38;;;22.13;;
34573;SDS011;20809;49.594;8.734;2023-02-23T07:22:33;35.40;;;22.27;;
34573;SDS011;20809;49.594;8.734;2023-02-23T07:25:35;35.83;;;21.25;;
34573;SDS011;20809;49.594;8.734;2023-02-23T07:28:37;35.60;;;22.55;;
34573;SDS011;20809;49.594;8.734;2023-02-23T07:31:41;36.70;;;21.85;;
34573;SDS011;20809;49.594;8.734;2023-02-23T07:37:59;33.25;;;20.02;;
34573;SDS011;20809;49.594;8.734;2023-02-23T07:41:00;35.10;;;21.98;;
34573;SDS011;20809;49.594;8.734;2023-02-23T07:44:01;33.92;;;19.42;;
34573;SDS011;20809;49.594;8.734;2023-02-23T07:47:02;36.05;;;22.60;;
34573;SDS011;20809;49.594;8.734;2023-02-23T07:50:03;38.17;;;22.42;;
34573;SDS011;20809;49.594;8.734;2023-02-23T07:53:09;34.20;;;21.58;;
34573;SDS011;20809;49.594;8.734;2023-02-23T07:56:10;37.20;;;23.05;;
34573;SDS011;20809;49.594;8.734;2023-02-23T07:59:12;30.95;;;21.70;;
34573;SDS011;20809;49.594;8.734;2023-02-23T08:02:13;34.00;;;21.55;;
34573;SDS011;20809;49.594;8.734;2023-02-23T08:05:14;33.38;;;20.23;;
34573;SDS011;20809;49.594;8.734;2023-02-23T08:08:15;30.55;;;19.27;;
34573;SDS011;20809;49.594;8.734;2023-02-23T08:11:15;35.47;;;20.30;;
34573;SDS011;20809;49.594;8.734;2023-02-23T08:14:16;31.92;;;20.33;;
34573;SDS011;20809;49.594;8.734;2023-02-23T08:17:21;28.60;;;18.48;;
34573;SDS011;20809;49.594;8.734;2023-02-23T08:20:21;32.40;;;20.77;;
34573;SDS011;20809;49.594;8.734;2023-02-23T08:23:23;28.52;;;18.20;;
34573;SDS011;20809;49.594;8.734;2023-02-23T08:26:24;30.27;;;17.95;;
34573;SDS011;20809;49.594;8.734;2023-02-23T08:29:25;29.25;;;18.13;;
34573;SDS011;20809;49.594;8.734;2023-02-23T08:32:26;31.27;;;18.30;;
34573;SDS011;20809;49.594;8.734;2023-02-23T08:35:28;23.48;;;16.67;;
34573;SDS011;20809;49.594;8.734;2023-02-23T08:38:30;28.98;;;18.42;;
34573;SDS011;20809;49.594;8.734;2023-02-23T08:41:32;29.48;;;18.98;;
34573;SDS011;20809;49.594;8.734;2023-02-23T08:44:33;26.45;;;18.83;;
34573;SDS011;20809;49.594;8.734;2023-02-23T08:47:34;27.85;;;18.33;;
34573;SDS011;20809;49.594;8.734;2023-02-23T08:50:35;26.50;;;18.02;;
34573;SDS011;20809;49.594;8.734;2023-02-23T08:53:36;29.10;;;17.95;;
34573;SDS011;20809;49.594;8.734;2023-02-23T08:56:37;26.63;;;18.50;;
34573;SDS011;20809;49.594;8.734;2023-02-23T08:59:38;30.60;;;19.73;;
34573;SDS011;20809;49.594;8.734;2023-02-23T09:02:40;28.45;;;19.23;;
34573;SDS011;20809;49.594;8.734;2023-02-23T09:05:47;34.85;;;19.30;;
34573;SDS011;20809;49.594;8.734;2023-02-23T09:11:49;30.37;;;18.97;;
34573;SDS011;20809;49.594;8.734;2023-02-23T09:14:50;30.65;;;19.80;;
34573;SDS011;20809;49.594;8.734;2023-02-23T09:17:52;33.20;;;20.83;;
34573;SDS011;20809;49.594;8.734;2023-02-23T09:20:53;30.83;;;20.30;;
34573;SDS011;20809;49.594;8.734;2023-02-23T09:23:54;32.28;;;20.95;;
34573;SDS011;20809;49.594;8.734;2023-02-23T09:26:55;29.05;;;18.85;;
34573;SDS011;20809;49.594;8.734;2023-02-23T09:29:57;29.48;;;19.98;;
34573;SDS011;20809;49.594;8.734;2023-02-23T09:32:58;28.92;;;20.67;;
34573;SDS011;20809;49.594;8.734;2023-02-23T09:35:58;30.40;;;20.88;;
34573;SDS011;20809;49.594;8.734;2023-02-23T09:38:59;34.95;;;22.25;;
34573;SDS011;20809;49.594;8.734;2023-02-23T09:42:03;31.50;;;21.63;;
34573;SDS011;20809;49.594;8.734;2023-02-23T09:45:25;29.63;;;19.75;;
34573;SDS011;20809;49.594;8.734;2023-02-23T09:48:42;29.42;;;19.40;;
34573;SDS011;20809;49.594;8.734;2023-02-23T09:51:44;30.92;;;19.13;;
34573;SDS011;20809;49.594;8.734;2023-02-23T09:54:48;26.73;;;18.38;;
34573;SDS011;20809;49.594;8.734;2023-02-23T09:57:49;32.50;;;20.08;;
34573;SDS011;20809;49.594;8.734;2023-02-23T10:01:03;29.55;;;20.05;;
34573;SDS011;20809;49.594;8.734;2023-02-23T10:04:21;26.67;;;18.85;;
34573;SDS011;20809;49.594;8.734;2023-02-23T10:10:50;30.42;;;19.83;;
34573;SDS011;20809;49.594;8.734;2023-02-23T10:14:12;23.60;;;16.95;;
34573;SDS011;20809;49.594;8.734;2023-02-23T10:23:50;26.90;;;17.75;;
34573;SDS011;20809;49.594;8.734;2023-02-23T10:26:58;21.35;;;15.82;;
34573;SDS011;20809;49.594;8.734;2023-02-23T10:30:15;22.15;;;15.55;;
34573;SDS011;20809;49.594;8.734;2023-02-23T10:33:23;24.73;;;14.95;;
34573;SDS011;20809;49.594;8.734;2023-02-23T10:36:50;19.75;;;14.88;;
34573;SDS011;20809;49.594;8.734;2023-02-23T10:39:56;21.63;;;14.98;;
34573;SDS011;20809;49.594;8.734;2023-02-23T10:42:58;22.30;;;15.98;;
34573;SDS011;20809;49.594;8.734;2023-02-23T10:46:00;20.77;;;14.82;;
34573;SDS011;20809;49.594;8.734;2023-02-23T10:49:01;20.58;;;15.15;;
34573;SDS011;20809;49.594;8.734;2023-02-23T10:52:03;21.48;;;15.60;;
34573;SDS011;20809;49.594;8.734;2023-02-23T10:55:07;22.40;;;15.32;;
34573;SDS011;20809;49.594;8.734;2023-02-23T10:58:28;19.95;;;15.05;;
34573;SDS011;20809;49.594;8.734;2023-02-23T11:01:33;21.92;;;14.70;;
34573;SDS011;20809;49.594;8.734;2023-02-23T11:04:49;23.85;;;15.50;;
34573;SDS011;20809;49.594;8.734;2023-02-23T11:11:22;23.13;;;15.43;;
34573;SDS011;20809;49.594;8.734;2023-02-23T11:14:30;20.92;;;14.48;;
34573;SDS011;20809;49.594;8.734;2023-02-23T11:20:37;18.95;;;13.93;;
34573;SDS011;20809;49.594;8.734;2023-02-23T11:23:40;23.17;;;13.93;;
34573;SDS011;20809;49.594;8.734;2023-02-23T11:26:42;20.40;;;14.20;;
34573;SDS011;20809;49.594;8.734;2023-02-23T11:29:44;19.65;;;13.02;;
34573;SDS011;20809;49.594;8.734;2023-02-23T11:32:51;19.30;;;13.32;;
34573;SDS011;20809;49.594;8.734;2023-02-23T11:35:58;23.25;;;14.85;;
34573;SDS011;20809;49.594;8.734;2023-02-23T11:39:01;20.80;;;14.82;;
34573;SDS011;20809;49.594;8.734;2023-02-23T11:42:19;24.52;;;15.20;;
34573;SDS011;20809;49.594;8.734;2023-02-23T11:45:22;24.73;;;15.65;;
34573;SDS011;20809;49.594;8.734;2023-02-23T11:48:30;22.75;;;14.45;;
34573;SDS011;20809;49.594;8.734;2023-02-23T11:51:35;21.60;;;14.25;;
34573;SDS011;20809;49.594;8.734;2023-02-23T11:54:38;24.33;;;15.15;;
34573;SDS011;20809;49.594;8.734;2023-02-23T11:57:46;20.83;;;14.65;;
34573;SDS011;20809;49.594;8.734;2023-02-23T12:00:56;20.00;;;13.73;;
34573;SDS011;20809;49.594;8.734;2023-02-23T12:04:02;17.80;;;12.07;;
34573;SDS011;20809;49.594;8.734;2023-02-23T12:10:33;14.52;;;10.30;;
34573;SDS011;20809;49.594;8.734;2023-02-23T12:13:44;16.63;;;10.18;;
34573;SDS011;20809;49.594;8.734;2023-02-23T12:16:51;13.88;;;10.30;;
34573;SDS011;20809;49.594;8.734;2023-02-23T12:20:05;13.82;;;10.35;;
34573;SDS011;20809;49.594;8.734;2023-02-23T12:23:22;12.63;;;9.13;;
34573;SDS011;20809;49.594;8.734;2023-02-23T12:26:26;18.92;;;9.70;;
34573;SDS011;20809;49.594;8.734;2023-02-23T12:32:50;14.48;;;8.75;;
34573;SDS011;20809;49.594;8.734;2023-02-23T12:39:35;9.80;;;8.10;;
34573;SDS011;20809;49.594;8.734;2023-02-23T12:42:44;9.75;;;7.78;;
34573;SDS011;20809;49.594;8.734;2023-02-23T12:46:10;9.27;;;7.30;;
34573;SDS011;20809;49.594;8.734;2023-02-23T12:49:24;10.32;;;7.05;;
34573;SDS011;20809;49.594;8.734;2023-02-23T12:52:31;13.05;;;7.10;;
34573;SDS011;20809;49.594;8.734;2023-02-23T12:55:38;9.48;;;7.15;;
34573;SDS011;20809;49.594;8.734;2023-02-23T13:02:04;10.05;;;7.03;;
34573;SDS011;20809;49.594;8.734;2023-02-23T13:05:31;10.65;;;7.57;;
34573;SDS011;20809;49.594;8.734;2023-02-23T13:15:06;7.47;;;6.13;;
34573;SDS011;20809;49.594;8.734;2023-02-23T13:32:02;7.13;;;5.65;;
34573;SDS011;20809;49.594;8.734;2023-02-23T13:35:06;6.60;;;5.90;;
34573;SDS011;20809;49.594;8.734;2023-02-23T13:38:28;9.63;;;6.15;;
34573;SDS011;20809;49.594;8.734;2023-02-23T13:45:34;8.23;;;6.25;;
34573;SDS011;20809;49.594;8.734;2023-02-23T13:52:29;7.15;;;5.28;;
34573;SDS011;20809;49.594;8.734;2023-02-23T13:55:46;7.25;;;5.40;;
34573;SDS011;20809;49.594;8.734;2023-02-23T13:58:51;6.55;;;5.38;;
34573;SDS011;20809;49.594;8.734;2023-02-23T14:05:25;7.43;;;5.60;;
34573;SDS011;20809;49.594;8.734;2023-02-23T14:08:34;5.80;;;4.20;;
34573;SDS011;20809;49.594;8.734;2023-02-23T14:11:45;6.35;;;3.60;;
34573;SDS011;20809;49.594;8.734;2023-02-23T14:14:47;7.70;;;5.07;;
34573;SDS011;20809;49.594;8.734;2023-02-23T14:17:58;5.30;;;3.88;;
34573;SDS011;20809;49.594;8.734;2023-02-23T14:24:27;4.35;;;3.35;;
34573;SDS011;20809;49.594;8.734;2023-02-23T14:27:33;7.00;;;3.63;;
34573;SDS011;20809;49.594;8.734;2023-02-23T14:30:45;5.38;;;3.85;;
34573;SDS011;20809;49.594;8.734;2023-02-23T14:33:51;7.53;;;3.83;;
34573;SDS011;20809;49.594;8.734;2023-02-23T14:36:56;5.47;;;3.63;;
34573;SDS011;20809;49.594;8.734;2023-02-23T14:40:16;5.82;;;3.72;;
34573;SDS011;20809;49.594;8.734;2023-02-23T14:46:49;5.30;;;3.42;;
34573;SDS011;20809;49.594;8.734;2023-02-23T14:50:24;5.28;;;3.20;;
34573;SDS011;20809;49.594;8.734;2023-02-23T14:53:32;4.32;;;3.10;;
34573;SDS011;20809;49.594;8.734;2023-02-23T14:56:33;5.38;;;3.53;;
34573;SDS011;20809;49.594;8.734;2023-02-23T14:59:50;3.53;;;2.85;;
34573;SDS011;20809;49.594;8.734;2023-02-23T15:03:00;4.72;;;2.75;;
34573;SDS011;20809;49.594;8.734;2023-02-23T15:06:08;3.67;;;2.80;;
34573;SDS011;20809;49.594;8.734;2023-02-23T15:09:14;3.97;;;3.53;;
34573;SDS011;20809;49.594;8.734;2023-02-23T15:12:29;4.30;;;3.00;;
34573;SDS011;20809;49.594;8.734;2023-02-23T15:15:34;4.65;;;3.00;;
34573;SDS011;20809;49.594;8.734;2023-02-23T15:18:42;4.32;;;3.47;;
34573;SDS011;20809;49.594;8.734;2023-02-23T15:21:50;6.38;;;3.92;;
34573;SDS011;20809;49.594;8.734;2023-02-23T15:24:55;6.03;;;4.13;;
34573;SDS011;20809;49.594;8.734;2023-02-23T15:27:59;4.13;;;3.40;;
34573;SDS011;20809;49.594;8.734;2023-02-23T15:31:22;6.10;;;3.42;;
34573;SDS011;20809;49.594;8.734;2023-02-23T15:34:29;4.95;;;3.45;;
34573;SDS011;20809;49.594;8.734;2023-02-23T15:37:34;5.13;;;3.67;;
34573;SDS011;20809;49.594;8.734;2023-02-23T15:40:39;4.93;;;3.40;;
34573;SDS011;20809;49.594;8.734;2023-02-23T15:43:40;5.03;;;3.08;;
34573;SDS011;20809;49.594;8.734;2023-02-23T15:46:42;4.10;;;3.10;;
34573;SDS011;20809;49.594;8.734;2023-02-23T15:49:44;4.50;;;3.60;;
34573;SDS011;20809;49.594;8.734;2023-02-23T15:52:49;4.30;;;3.42;;
34573;SDS011;20809;49.594;8.734;2023-02-23T15:55:56;9.02;;;3.67;;
34573;SDS011;20809;49.594;8.734;2023-02-23T15:59:48;4.82;;;3.67;;
34573;SDS011;20809;49.594;8.734;2023-02-23T16:02:46;4.38;;;3.83;;
34573;SDS011;20809;49.594;8.734;2023-02-23T16:05:56;6.43;;;4.15;;
34573;SDS011;20809;49.594;8.734;2023-02-23T16:12:21;5.63;;;4.03;;
34573;SDS011;20809;49.594;8.734;2023-02-23T16:15:34;5.15;;;4.05;;
34573;SDS011;20809;49.594;8.734;2023-02-23T16:18:38;8.45;;;4.22;;
34573;SDS011;20809;49.594;8.734;2023-02-23T16:21:40;6.45;;;4.78;;
34573;SDS011;20809;49.594;8.734;2023-02-23T16:24:41;6.18;;;4.28;;
34573;SDS011;20809;49.594;8.734;2023-02-23T16:27:42;6.22;;;5.05;;
34573;SDS011;20809;49.594;8.734;2023-02-23T16:30:55;4.45;;;4.00;;
34573;SDS011;20809;49.594;8.734;2023-02-23T16:33:57;9.07;;;4.72;;
34573;SDS011;20809;49.594;8.734;2023-02-23T16:37:02;5.45;;;4.60;;
34573;SDS011;20809;49.594;8.734;2023-02-23T16:40:14;5.55;;;4.93;;
34573;SDS011;20809;49.594;8.734;2023-02-23T16:43:15;6.00;;;4.50;;
34573;SDS011;20809;49.594;8.734;2023-02-23T16:46:16;5.65;;;3.72;;
34573;SDS011;20809;49.594;8.734;2023-02-23T16:49:18;6.03;;;4.53;;
34573;SDS011;20809;49.594;8.734;2023-02-23T16:52:22;6.28;;;5.22;;
34573;SDS011;20809;49.594;8.734;2023-02-23T16:55:23;5.88;;;4.13;;
34573;SDS011;20809;49.594;8.734;2023-02-23T16:58:26;5.97;;;4.90;;
34573;SDS011;20809;49.594;8.734;2023-02-23T17:01:29;6.35;;;4.20;;
34573;SDS011;20809;49.594;8.734;2023-02-23T17:04:30;8.77;;;5.10;;
34573;SDS011;20809;49.594;8.734;2023-02-23T17:07:31;7.22;;;4.22;;
34573;SDS011;20809;49.594;8.734;2023-02-23T17:10:32;6.60;;;3.95;;
34573;SDS011;20809;49.594;8.734;2023-02-23T17:13:34;8.25;;;4.50;;
34573;SDS011;20809;49.594;8.734;2023-02-23T17:16:35;5.75;;;4.20;;
34573;SDS011;20809;49.594;8.734;2023-02-23T17:19:36;10.15;;;6.43;;
34573;SDS011;20809;49.594;8.734;2023-02-23T17:22:37;9.15;;;5.63;;
34573;SDS011;20809;49.594;8.734;2023-02-23T17:25:37;7.18;;;4.93;;
34573;SDS011;20809;49.594;8.734;2023-02-23T17:28:39;6.53;;;4.70;;
34573;SDS011;20809;49.594;8.734;2023-02-23T17:31:40;7.32;;;5.38;;
34573;SDS011;20809;49.594;8.734;2023-02-23T17:34:41;6.10;;;5.18;;
34573;SDS011;20809;49.594;8.734;2023-02-23T17:37:42;7.07;;;5.45;;
34573;SDS011;20809;49.594;8.734;2023-02-23T17:40:43;7.53;;;5.90;;
34573;SDS011;20809;49.594;8.734;2023-02-23T17:43:44;6.30;;;4.90;;
34573;SDS011;20809;49.594;8.734;2023-02-23T17:46:45;10.93;;;6.55;;
34573;SDS011;20809;49.594;8.734;2023-02-23T17:49:46;13.75;;;8.52;;
34573;SDS011;20809;49.594;8.734;2023-02-23T17:52:47;9.68;;;7.43;;
34573;SDS011;20809;49.594;8.734;2023-02-23T17:55:51;10.13;;;7.50;;
34573;SDS011;20809;49.594;8.734;2023-02-23T17:58:52;7.63;;;6.78;;
34573;SDS011;20809;49.594;8.734;2023-02-23T18:01:53;10.80;;;7.50;;
34573;SDS011;20809;49.594;8.734;2023-02-23T18:04:54;10.05;;;7.07;;
34573;SDS011;20809;49.594;8.734;2023-02-23T18:07:54;7.18;;;6.07;;
34573;SDS011;20809;49.594;8.734;2023-02-23T18:10:55;10.77;;;5.93;;
34573;SDS011;20809;49.594;8.734;2023-02-23T18:16:57;9.40;;;5.80;;
34573;SDS011;20809;49.594;8.734;2023-02-23T18:19:58;6.85;;;5.53;;
34573;SDS011;20809;49.594;8.734;2023-02-23T18:22:59;10.40;;;6.80;;
34573;SDS011;20809;49.594;8.734;2023-02-23T18:26:10;22.35;;;13.90;;
34573;SDS011;20809;49.594;8.734;2023-02-23T18:29:12;12.60;;;9.15;;
34573;SDS011;20809;49.594;8.734;2023-02-23T18:32:13;12.07;;;7.53;;
34573;SDS011;20809;49.594;8.734;2023-02-23T18:35:14;9.45;;;7.65;;
34573;SDS011;20809;49.594;8.734;2023-02-23T18:38:15;10.60;;;7.25;;
34573;SDS011;20809;49.594;8.734;2023-02-23T18:41:16;8.23;;;6.75;;
34573;SDS011;20809;49.594;8.734;2023-02-23T18:47:18;13.00;;;8.70;;
34573;SDS011;20809;49.594;8.734;2023-02-23T18:50:18;12.07;;;7.88;;
34573;SDS011;20809;49.594;8.734;2023-02-23T18:53:19;11.88;;;7.47;;
34573;SDS011;20809;49.594;8.734;2023-02-23T18:56:21;11.35;;;6.82;;
34573;SDS011;20809;49.594;8.734;2023-02-23T18:59:26;16.27;;;10.48;;
34573;SDS011;20809;49.594;8.734;2023-02-23T19:02:26;16.63;;;9.50;;
34573;SDS011;20809;49.594;8.734;2023-02-23T19:05:27;17.08;;;9.98;;
34573;SDS011;20809;49.594;8.734;2023-02-23T19:08:28;18.45;;;10.02;;
34573;SDS011;20809;49.594;8.734;2023-02-23T19:11:31;16.40;;;10.20;;
34573;SDS011;20809;49.594;8.734;2023-02-23T19:14:32;13.82;;;9.60;;
34573;SDS011;20809;49.594;8.734;2023-02-23T19:17:33;11.60;;;8.75;;
34573;SDS011;20809;49.594;8.734;2023-02-23T19:23:35;13.67;;;7.90;;
34573;SDS011;20809;49.594;8.734;2023-02-23T19:26:37;13.73;;;8.40;;
34573;SDS011;20809;49.594;8.734;2023-02-23T19:29:38;12.35;;;8.07;;
34573;SDS011;20809;49.594;8.734;2023-02-23T19:32:39;12.95;;;9.18;;
34573;SDS011;20809;49.594;8.734;2023-02-23T19:35:41;14.57;;;9.05;;
34573;SDS011;20809;49.594;8.734;2023-02-23T19:38:43;11.48;;;7.88;;
34573;SDS011;20809;49.594;8.734;2023-02-23T19:41:47;11.90;;;8.38;;
34573;SDS011;20809;49.594;8.734;2023-02-23T19:44:48;11.48;;;8.18;;
34573;SDS011;20809;49.594;8.734;2023-02-23T19:47:52;12.45;;;8.40;;
34573;SDS011;20809;49.594;8.734;2023-02-23T19:50:53;11.73;;;7.72;;
34573;SDS011;20809;49.594;8.734;2023-02-23T19:53:54;12.93;;;8.63;;
34573;SDS011;20809;49.594;8.734;2023-02-23T19:56:56;11.95;;;9.25;;
34573;SDS011;20809;49.594;8.734;2023-02-23T19:59:57;16.73;;;11.40;;
34573;SDS011;20809;49.594;8.734;2023-02-23T20:02:57;12.82;;;9.93;;
34573;SDS011;20809;49.594;8.734;2023-02-23T20:06:05;14.23;;;9.57;;
34573;SDS011;20809;49.594;8.734;2023-02-23T20:09:06;12.25;;;9.45;;
34573;SDS011;20809;49.594;8.734;2023-02-23T20:12:08;15.38;;;10.43;;
34573;SDS011;20809;49.594;8.734;2023-02-23T20:15:09;14.35;;;10.68;;
34573;SDS011;20809;49.594;8.734;2023-02-23T20:18:09;20.45;;;11.68;;
34573;SDS011;20809;49.594;8.734;2023-02-23T20:21:13;16.10;;;11.38;;
34573;SDS011;20809;49.594;8.734;2023-02-23T20:24:16;21.00;;;12.40;;
34573;SDS011;20809;49.594;8.734;2023-02-23T20:27:17;24.55;;;14.18;;
34573;SDS011;20809;49.594;8.734;2023-02-23T20:30:21;19.45;;;11.38;;